Time;durP1;ratioP1;P1;durP2;ratioP2;P2;SDS_P1;SDS_P2;PMS_P1;PMS_P2;Temp;Humidity;BMP_temperature;BMP_pressure;BME280_temperature;BME280_humidity;BME280_pressure;Samples;Min_cycle;Max_cycle;Signal;HPM_P1;HPM_P2
2022/12/08 00:01:26;;;;;;;5.35;3.38;;;;;;;;;;4752415;30;20062;-81
2022/12/08 00:03:52;;;;;;;7.70;4.40;;;;;;;;;;4764417;30;20126;-80
2022/12/08 00:09:20;;;;;;;7.38;4.45;;;;;;;;;;4769200;30;20097;-80
2022/12/08 00:11:46;;;;;;;;;;;;;;;;;;4767763;30;20031;-80
2022/12/08 00:14:11;;;;;;;7.25;4.63;;;;;;;;;;4763975;30;19926;-81
2022/12/08 00:16:37;;;;;;;8.20;4.80;;;;;;;;;;4747831;30;20051;-81
2022/12/08 00:19:02;;;;;;;10.52;5.22;;;;;;;;;;4754944;30;20028;-80
2022/12/08 00:21:28;;;;;;;7.05;4.95;;;;;;;;;;4762173;30;20092;-80
2022/12/08 00:23:55;;;;;;;10.23;4.57;;;;;;;;;;4749752;30;20470;-80
2022/12/08 00:26:21;;;;;;;10.52;5.38;;;;;;;;;;4766797;30;20544;-80
2022/12/08 00:28:46;;;;;;;7.68;4.57;;;;;;;;;;4750459;30;20039;-80
2022/12/08 00:31:12;;;;;;;7.10;4.60;;;;;;;;;;4767992;30;20519;-80
2022/12/08 00:33:37;;;;;;;7.28;4.53;;;;;;;;;;4759571;30;20035;-80
2022/12/08 00:36:08;;;;;;;7.03;4.45;;;;;;;;;;4762213;30;20066;-79
2022/12/08 00:38:35;;;;;;;6.80;4.53;;;;;;;;;;4763658;30;20075;-80
2022/12/08 00:41:00;;;;;;;7.95;4.88;;;;;;;;;;4749692;30;20122;-80
2022/12/08 00:43:26;;;;;;;8.73;5.32;;;;;;;;;;4756341;30;20123;-80
2022/12/08 00:45:51;;;;;;;7.93;5.40;;;;;;;;;;4747811;30;20374;-80
2022/12/08 00:48:17;;;;;;;8.50;5.88;;;;;;;;;;4759049;30;20114;-81
2022/12/08 00:50:42;;;;;;;9.45;5.75;;;;;;;;;;4761357;30;20031;-80
2022/12/08 00:53:07;;;;;;;11.02;5.63;;;;;;;;;;4759208;30;20024;-80
2022/12/08 00:55:33;;;;;;;9.50;5.93;;;;;;;;;;4760112;30;20507;-80
2022/12/08 00:57:58;;;;;;;9.73;6.20;;;;;;;;;;4761181;30;20031;-79
2022/12/08 01:00:23;;;;;;;12.30;6.10;;;;;;;;;;4763129;30;20057;-79
2022/12/08 01:02:49;;;;;;;10.50;6.20;;;;;;;;;;4759318;30;20043;-79
2022/12/08 01:05:14;;;;;;;9.43;5.78;;;;;;;;;;4742379;30;20044;-79
2022/12/08 01:07:40;;;;;;;7.60;4.85;;;;;;;;;;4754334;30;20387;-79
2022/12/08 01:10:06;;;;;;;10.82;6.22;;;;;;;;;;4745485;30;20066;-80
2022/12/08 01:12:31;;;;;;;10.60;5.75;;;;;;;;;;4762162;30;20043;-81
2022/12/08 01:14:56;;;;;;;9.00;5.47;;;;;;;;;;4759000;30;20031;-80
2022/12/08 01:17:22;;;;;;;8.27;5.72;;;;;;;;;;4751822;30;20051;-81
2022/12/08 01:19:47;;;;;;;8.52;5.35;;;;;;;;;;4761862;30;20036;-80
2022/12/08 01:22:13;;;;;;;10.25;5.18;;;;;;;;;;4764138;30;20513;-81
2022/12/08 01:24:38;;;;;;;9.88;4.90;;;;;;;;;;4761054;30;20051;-80
2022/12/08 01:27:03;;;;;;;9.45;5.72;;;;;;;;;;4766344;30;20444;-81
2022/12/08 01:29:29;;;;;;;9.18;5.45;;;;;;;;;;4762426;30;20035;-80
2022/12/08 01:31:54;;;;;;;8.02;5.03;;;;;;;;;;4750112;30;20043;-80
2022/12/08 01:34:19;;;;;;;8.75;5.32;;;;;;;;;;4765395;30;20036;-80
2022/12/08 01:36:46;;;;;;;7.88;4.65;;;;;;;;;;4761739;30;20028;-80
2022/12/08 01:39:16;;;;;;;9.90;4.78;;;;;;;;;;4765012;30;20505;-80
2022/12/08 01:41:43;;;;;;;8.65;4.38;;;;;;;;;;4748610;30;20032;-80
2022/12/08 01:44:11;;;;;;;9.63;5.00;;;;;;;;;;4751286;30;20032;-80
2022/12/08 01:46:39;;;;;;;8.30;4.40;;;;;;;;;;4762534;30;20459;-80
2022/12/08 01:49:19;;;;;;;7.28;4.45;;;;;;;;;;4750761;30;20102;-80
2022/12/08 01:51:56;;;;;;;8.95;4.68;;;;;;;;;;4767134;30;20032;-80
2022/12/08 01:54:25;;;;;;;8.68;4.35;;;;;;;;;;4766894;30;20042;-80
2022/12/08 01:57:22;;;;;;;7.55;4.70;;;;;;;;;;4752250;30;20050;-80
2022/12/08 01:59:59;;;;;;;8.60;4.50;;;;;;;;;;4756957;30;20507;-80
2022/12/08 02:02:30;;;;;;;8.73;4.38;;;;;;;;;;4747237;30;20035;-80
2022/12/08 02:04:56;;;;;;;10.10;5.00;;;;;;;;;;4746422;30;20093;-79
2022/12/08 02:07:22;;;;;;;7.80;4.40;;;;;;;;;;4761564;30;20040;-80
2022/12/08 02:09:47;;;;;;;6.18;3.95;;;;;;;;;;4764493;30;20041;-80
2022/12/08 02:12:13;;;;;;;7.72;4.18;;;;;;;;;;4748859;30;20490;-81
2022/12/08 02:14:39;;;;;;;7.45;4.05;;;;;;;;;;4759822;30;20035;-79
2022/12/08 02:17:19;;;;;;;6.40;3.75;;;;;;;;;;4755035;30;20086;-78
2022/12/08 02:20:00;;;;;;;7.28;3.75;;;;;;;;;;4759234;29;20063;-80
2022/12/08 02:22:50;;;;;;;6.68;3.10;;;;;;;;;;4762430;30;20493;-79
2022/12/08 02:25:56;;;;;;;5.50;3.08;;;;;;;;;;4766264;30;20390;-80
2022/12/08 02:28:46;;;;;;;6.50;3.17;;;;;;;;;;4767081;30;20032;-80
2022/12/08 02:31:53;;;;;;;5.22;3.00;;;;;;;;;;4750550;30;20032;-80
2022/12/08 02:34:33;;;;;;;5.53;3.17;;;;;;;;;;4764448;30;20054;-80
2022/12/08 02:37:08;;;;;;;5.50;3.30;;;;;;;;;;4764354;30;20477;-80
2022/12/08 02:39:52;;;;;;;4.22;2.67;;;;;;;;;;4765331;30;20023;-80
2022/12/08 02:42:33;;;;;;;5.43;3.03;;;;;;;;;;4762025;30;20034;-80
2022/12/08 02:45:02;;;;;;;5.07;3.28;;;;;;;;;;4767972;30;20051;-80
2022/12/08 02:47:30;;;;;;;5.57;2.65;;;;;;;;;;4747496;30;20055;-80
2022/12/08 02:49:56;;;;;;;6.03;3.10;;;;;;;;;;4766743;30;20032;-80
2022/12/08 02:52:22;;;;;;;5.22;3.00;;;;;;;;;;4749787;30;20050;-79
2022/12/08 02:54:55;;;;;;;5.10;2.90;;;;;;;;;;4752060;30;20039;-80
2022/12/08 02:57:32;;;;;;;5.40;3.22;;;;;;;;;;4763996;30;20488;-80
2022/12/08 03:00:14;;;;;;;5.00;2.83;;;;;;;;;;4761671;30;20110;-78
2022/12/08 03:02:55;;;;;;;4.63;2.55;;;;;;;;;;4763385;30;20036;-79
2022/12/08 03:05:32;;;;;;;6.25;2.60;;;;;;;;;;4766299;30;20501;-79
2022/12/08 03:08:25;;;;;;;3.35;2.03;;;;;;;;;;4761435;30;20040;-80
2022/12/08 03:10:54;;;;;;;2.63;1.40;;;;;;;;;;4764613;30;20066;-80
2022/12/08 03:13:28;;;;;;;3.70;1.70;;;;;;;;;;4768621;30;20052;-79
2022/12/08 03:15:55;;;;;;;3.20;1.70;;;;;;;;;;4761567;30;20060;-79
2022/12/08 03:18:26;;;;;;;2.67;1.40;;;;;;;;;;4763006;30;20057;-80
2022/12/08 03:20:51;;;;;;;3.70;1.50;;;;;;;;;;4759548;30;20054;-79
2022/12/08 03:23:18;;;;;;;3.80;1.60;;;;;;;;;;4762948;30;20032;-79
2022/12/08 03:25:55;;;;;;;2.90;1.48;;;;;;;;;;4766908;30;20043;-80
2022/12/08 03:28:21;;;;;;;3.00;1.33;;;;;;;;;;4759881;30;20266;-79
2022/12/08 03:30:51;;;;;;;2.80;1.50;;;;;;;;;;4763051;30;22508;-80
2022/12/08 03:33:26;;;;;;;1.95;1.20;;;;;;;;;;4764988;30;20039;-80
2022/12/08 03:35:53;;;;;;;3.22;1.25;;;;;;;;;;4763350;30;20039;-79
2022/12/08 03:38:18;;;;;;;3.10;1.40;;;;;;;;;;4749110;30;20571;-80
2022/12/08 03:41:17;;;;;;;2.50;1.30;;;;;;;;;;4762187;30;20027;-79
2022/12/08 03:43:29;;;;;;;4.22;1.40;;;;;;;;;;4764479;30;20067;-79
2022/12/08 03:45:55;;;;;;;4.32;1.27;;;;;;;;;;4767213;30;20528;-79
2022/12/08 03:48:20;;;;;;;1.90;1.17;;;;;;;;;;4763757;30;20030;-79
2022/12/08 03:50:46;;;;;;;2.28;1.27;;;;;;;;;;4759501;30;20389;-78
2022/12/08 03:53:11;;;;;;;1.83;1.10;;;;;;;;;;4757806;30;20406;-78
2022/12/08 03:55:36;;;;;;;2.60;1.10;;;;;;;;;;4766078;30;20038;-78
2022/12/08 03:58:02;;;;;;;1.83;1.00;;;;;;;;;;4765263;30;20123;-78
2022/12/08 04:00:27;;;;;;;2.13;0.93;;;;;;;;;;4760488;30;20047;-78
2022/12/08 04:02:52;;;;;;;2.97;1.30;;;;;;;;;;4763774;30;20051;-78
2022/12/08 04:05:18;;;;;;;2.97;1.23;;;;;;;;;;4760625;30;20096;-77
2022/12/08 04:07:43;;;;;;;1.42;0.90;;;;;;;;;;4748506;30;20089;-78
2022/12/08 04:10:09;;;;;;;1.83;1.20;;;;;;;;;;4764017;30;20028;-78
2022/12/08 04:12:34;;;;;;;2.63;1.17;;;;;;;;;;4768899;30;20043;-78
2022/12/08 04:15:00;;;;;;;1.67;1.05;;;;;;;;;;4763654;30;20436;-78
2022/12/08 04:17:25;;;;;;;2.05;1.30;;;;;;;;;;4770703;30;20039;-78
2022/12/08 04:19:50;;;;;;;2.10;1.40;;;;;;;;;;4769287;30;20728;-78
2022/12/08 04:22:16;;;;;;;2.42;1.42;;;;;;;;;;4759208;30;20035;-78
2022/12/08 04:24:41;;;;;;;3.00;1.60;;;;;;;;;;4765498;30;20034;-79
2022/12/08 04:27:06;;;;;;;2.20;1.40;;;;;;;;;;4763322;30;20438;-78
2022/12/08 04:29:32;;;;;;;2.78;1.70;;;;;;;;;;4762354;30;20390;-78
2022/12/08 04:31:57;;;;;;;3.83;1.70;;;;;;;;;;4760284;30;20031;-78
2022/12/08 04:34:23;;;;;;;3.08;1.60;;;;;;;;;;4749182;30;20035;-78
2022/12/08 04:36:48;;;;;;;1.75;1.15;;;;;;;;;;4760827;30;20035;-77
2022/12/08 04:39:13;;;;;;;2.33;1.27;;;;;;;;;;4763646;30;20473;-77
2022/12/08 04:41:39;;;;;;;2.53;1.30;;;;;;;;;;4757115;30;20063;-77
2022/12/08 04:44:04;;;;;;;2.42;1.20;;;;;;;;;;4762020;30;20036;-77
2022/12/08 04:46:29;;;;;;;2.40;1.33;;;;;;;;;;4761361;30;20032;-77
2022/12/08 04:48:55;;;;;;;2.63;1.15;;;;;;;;;;4761149;30;20035;-77
2022/12/08 04:51:20;;;;;;;2.85;1.13;;;;;;;;;;4762343;30;20040;-78
2022/12/08 04:53:46;;;;;;;1.60;1.00;;;;;;;;;;4761867;30;20032;-78
2022/12/08 04:56:16;;;;;;;1.67;1.00;;;;;;;;;;4763568;30;20036;-78
2022/12/08 04:58:41;;;;;;;1.35;1.10;;;;;;;;;;4765095;30;20043;-78
2022/12/08 05:01:07;;;;;;;2.55;1.13;;;;;;;;;;4760568;30;20397;-78
2022/12/08 05:03:32;;;;;;;3.33;1.02;;;;;;;;;;4763009;30;20038;-78
2022/12/08 05:05:59;;;;;;;1.67;0.95;;;;;;;;;;4748125;30;20058;-78
2022/12/08 05:08:24;;;;;;;1.70;1.10;;;;;;;;;;4763598;30;20432;-78
2022/12/08 05:10:50;;;;;;;1.67;1.10;;;;;;;;;;4761382;30;20101;-78
2022/12/08 05:13:15;;;;;;;1.35;0.98;;;;;;;;;;4763560;30;20039;-79
2022/12/08 05:15:40;;;;;;;1.55;0.90;;;;;;;;;;4762630;30;20116;-78
2022/12/08 05:18:06;;;;;;;1.38;1.05;;;;;;;;;;4750670;30;20063;-78
2022/12/08 05:20:32;;;;;;;1.92;1.08;;;;;;;;;;4764542;30;20031;-78
2022/12/08 05:22:57;;;;;;;1.63;0.80;;;;;;;;;;4765398;30;20057;-78
2022/12/08 05:25:22;;;;;;;1.38;0.80;;;;;;;;;;4749739;30;20035;-78
2022/12/08 05:27:48;;;;;;;3.33;0.85;;;;;;;;;;4760141;30;20028;-78
2022/12/08 05:30:13;;;;;;;1.38;0.70;;;;;;;;;;4760230;30;20393;-78
2022/12/08 05:32:39;;;;;;;1.95;1.00;;;;;;;;;;4744736;30;20036;-78
2022/12/08 05:35:04;;;;;;;1.83;1.00;;;;;;;;;;4761130;30;20036;-78
2022/12/08 05:37:30;;;;;;;2.35;1.30;;;;;;;;;;4759562;30;20032;-78
2022/12/08 05:39:55;;;;;;;2.40;1.30;;;;;;;;;;4757837;30;20139;-78
2022/12/08 05:42:21;;;;;;;1.75;1.02;;;;;;;;;;4762439;30;20039;-78
2022/12/08 05:44:46;;;;;;;3.58;1.10;;;;;;;;;;4765575;30;20043;-78
2022/12/08 05:47:11;;;;;;;1.77;1.10;;;;;;;;;;4748380;30;20497;-78
2022/12/08 05:49:37;;;;;;;2.58;1.10;;;;;;;;;;4766971;30;20402;-78
2022/12/08 05:52:02;;;;;;;2.72;1.42;;;;;;;;;;4748909;30;20388;-78
2022/12/08 05:54:27;;;;;;;3.70;1.35;;;;;;;;;;4767749;30;20063;-78
2022/12/08 05:56:53;;;;;;;3.15;1.08;;;;;;;;;;4749682;30;20032;-78
2022/12/08 05:59:18;;;;;;;2.28;0.80;;;;;;;;;;4769457;30;20223;-77
2022/12/08 06:01:43;;;;;;;0.77;0.57;;;;;;;;;;4763420;30;20032;-78
2022/12/08 06:04:09;;;;;;;3.60;1.08;;;;;;;;;;4768866;30;20028;-78
2022/12/08 06:06:35;;;;;;;1.15;0.70;;;;;;;;;;4766051;30;20116;-78
2022/12/08 06:09:03;;;;;;;1.40;0.90;;;;;;;;;;4768161;30;20123;-78
2022/12/08 06:11:29;;;;;;;1.98;1.02;;;;;;;;;;4770217;30;20035;-78
2022/12/08 06:13:56;;;;;;;2.67;1.02;;;;;;;;;;4762661;30;20130;-78
2022/12/08 06:16:23;;;;;;;2.72;1.20;;;;;;;;;;4747734;30;20080;-78
2022/12/08 06:18:50;;;;;;;4.85;1.70;;;;;;;;;;4750615;30;20154;-78
2022/12/08 06:21:16;;;;;;;3.40;1.63;;;;;;;;;;4759975;30;20124;-79
2022/12/08 06:23:42;;;;;;;3.45;1.70;;;;;;;;;;4743526;30;20032;-78
2022/12/08 06:26:11;;;;;;;3.15;1.65;;;;;;;;;;4752089;30;20040;-78
2022/12/08 06:28:37;;;;;;;2.97;1.67;;;;;;;;;;4750097;30;20037;-78
2022/12/08 06:31:13;;;;;;;4.47;1.77;;;;;;;;;;4754100;30;20055;-78
2022/12/08 06:33:38;;;;;;;2.85;1.77;;;;;;;;;;4748166;30;20492;-78
2022/12/08 06:36:04;;;;;;;3.28;1.77;;;;;;;;;;4751464;30;20028;-79
2022/12/08 06:38:30;;;;;;;2.50;1.52;;;;;;;;;;4751193;30;20033;-78
2022/12/08 06:40:57;;;;;;;3.50;1.88;;;;;;;;;;4754363;30;20489;-78
2022/12/08 06:43:23;;;;;;;4.90;2.00;;;;;;;;;;4747348;30;20409;-79
2022/12/08 06:45:48;;;;;;;2.47;1.40;;;;;;;;;;4744620;30;20124;-79
2022/12/08 06:48:14;;;;;;;2.72;1.65;;;;;;;;;;4746356;30;20052;-78
2022/12/08 06:50:39;;;;;;;2.67;1.60;;;;;;;;;;4746674;30;20040;-78
2022/12/08 06:53:04;;;;;;;2.35;1.38;;;;;;;;;;4729872;30;20409;-79
2022/12/08 06:55:30;;;;;;;3.67;1.98;;;;;;;;;;4753885;30;20031;-79
2022/12/08 06:57:55;;;;;;;2.85;1.55;;;;;;;;;;4751024;30;20035;-78
2022/12/08 07:00:21;;;;;;;3.05;1.73;;;;;;;;;;4745531;30;20079;-78
2022/12/08 07:02:47;;;;;;;3.28;1.70;;;;;;;;;;4747958;30;20448;-78
2022/12/08 07:05:12;;;;;;;2.65;1.80;;;;;;;;;;4742364;30;20094;-78
2022/12/08 07:07:38;;;;;;;3.45;2.20;;;;;;;;;;4733013;30;20063;-78
2022/12/08 07:10:04;;;;;;;3.92;2.22;;;;;;;;;;4746384;30;20086;-78
2022/12/08 07:12:30;;;;;;;2.95;1.90;;;;;;;;;;4745661;30;20036;-78
2022/12/08 07:14:55;;;;;;;4.20;2.20;;;;;;;;;;4746310;30;20158;-78
2022/12/08 07:17:20;;;;;;;3.88;2.35;;;;;;;;;;4754409;30;20078;-78
2022/12/08 07:19:46;;;;;;;3.38;2.00;;;;;;;;;;4734540;30;20041;-78
2022/12/08 07:22:11;;;;;;;4.40;2.17;;;;;;;;;;4727812;30;21577;-78
2022/12/08 07:24:36;;;;;;;2.90;2.00;;;;;;;;;;4733274;30;20032;-78
2022/12/08 07:27:02;;;;;;;4.68;1.88;;;;;;;;;;4742963;30;20399;-78
2022/12/08 07:29:27;;;;;;;3.15;1.85;;;;;;;;;;4734550;30;20090;-78
2022/12/08 07:31:53;;;;;;;3.65;2.05;;;;;;;;;;4752994;30;20035;-79
2022/12/08 07:34:18;;;;;;;2.17;1.35;;;;;;;;;;4737831;30;20043;-78
2022/12/08 07:36:43;;;;;;;2.67;1.25;;;;;;;;;;4742373;30;20626;-79
2022/12/08 07:39:09;;;;;;;3.53;1.23;;;;;;;;;;4753923;30;20043;-78
2022/12/08 07:41:34;;;;;;;2.45;1.20;;;;;;;;;;4749277;30;20036;-79
2022/12/08 07:43:59;;;;;;;1.17;0.82;;;;;;;;;;4750596;30;20159;-78
2022/12/08 07:46:25;;;;;;;1.20;0.70;;;;;;;;;;4745171;30;20059;-78
2022/12/08 07:48:52;;;;;;;1.23;0.73;;;;;;;;;;4752565;30;20040;-78
2022/12/08 07:51:18;;;;;;;1.00;0.60;;;;;;;;;;4746297;30;20063;-78
2022/12/08 07:53:45;;;;;;;1.15;0.60;;;;;;;;;;4739818;30;20393;-79
2022/12/08 07:56:12;;;;;;;1.25;0.68;;;;;;;;;;4739185;30;20501;-79
2022/12/08 07:58:38;;;;;;;0.90;0.55;;;;;;;;;;4731531;30;20047;-79
2022/12/08 08:01:04;;;;;;;1.00;0.60;;;;;;;;;;4744321;30;20036;-77
2022/12/08 08:03:29;;;;;;;1.33;0.60;;;;;;;;;;4756127;30;20035;-77
2022/12/08 08:06:01;;;;;;;1.27;0.80;;;;;;;;;;4741685;30;20052;-77
2022/12/08 08:08:26;;;;;;;1.02;0.60;;;;;;;;;;4743184;30;20032;-76
2022/12/08 08:10:52;;;;;;;1.40;0.80;;;;;;;;;;4746987;30;20043;-77
2022/12/08 08:13:17;;;;;;;1.48;0.90;;;;;;;;;;4745701;30;20077;-76
2022/12/08 08:15:42;;;;;;;1.25;0.88;;;;;;;;;;4729634;30;21687;-77
2022/12/08 08:18:08;;;;;;;1.58;0.95;;;;;;;;;;4765990;30;20051;-76
2022/12/08 08:20:33;;;;;;;2.17;1.10;;;;;;;;;;4758881;30;20032;-77
2022/12/08 08:22:59;;;;;;;1.90;1.10;;;;;;;;;;4770551;30;20112;-76
2022/12/08 08:25:24;;;;;;;1.60;0.90;;;;;;;;;;4748976;30;20177;-77
2022/12/08 08:27:50;;;;;;;1.73;1.00;;;;;;;;;;4752656;30;20036;-77
2022/12/08 08:30:16;;;;;;;1.20;0.80;;;;;;;;;;4757920;30;20504;-77
2022/12/08 08:32:41;;;;;;;2.03;0.80;;;;;;;;;;4760255;30;20036;-76
2022/12/08 08:35:07;;;;;;;1.88;1.00;;;;;;;;;;4767464;30;20150;-76
2022/12/08 08:37:33;;;;;;;0.85;0.60;;;;;;;;;;4753110;30;20393;-77
2022/12/08 08:39:58;;;;;;;0.75;0.50;;;;;;;;;;4765365;30;20028;-77
2022/12/08 08:42:24;;;;;;;1.10;0.60;;;;;;;;;;4764396;30;20036;-77
2022/12/08 08:44:49;;;;;;;0.60;0.50;;;;;;;;;;4762013;30;20073;-77
2022/12/08 08:47:15;;;;;;;0.90;0.50;;;;;;;;;;4767840;30;20516;-77
2022/12/08 08:49:40;;;;;;;0.43;0.43;;;;;;;;;;4770718;30;20027;-77
2022/12/08 08:52:06;;;;;;;1.17;0.52;;;;;;;;;;4751539;30;20067;-77
2022/12/08 08:54:32;;;;;;;0.50;0.30;;;;;;;;;;4765607;30;20469;-76
2022/12/08 08:56:59;;;;;;;1.13;0.50;;;;;;;;;;4763597;30;20038;-76
2022/12/08 08:59:25;;;;;;;0.40;0.40;;;;;;;;;;4767469;30;20032;-77
2022/12/08 09:01:51;;;;;;;0.95;0.50;;;;;;;;;;4766791;30;20031;-76
2022/12/08 09:04:17;;;;;;;1.00;0.60;;;;;;;;;;4763567;30;20045;-76
2022/12/08 09:06:44;;;;;;;0.80;0.45;;;;;;;;;;4768401;30;20088;-76
2022/12/08 09:09:09;;;;;;;0.95;0.50;;;;;;;;;;4759782;30;20441;-77
2022/12/08 09:11:35;;;;;;;0.68;0.50;;;;;;;;;;4752275;30;20051;-76
2022/12/08 09:14:00;;;;;;;0.30;0.25;;;;;;;;;;4763850;30;20089;-77
2022/12/08 09:16:26;;;;;;;0.55;0.28;;;;;;;;;;4770934;30;20052;-77
2022/12/08 09:18:52;;;;;;;0.45;0.40;;;;;;;;;;4760883;30;20044;-77
2022/12/08 09:21:24;;;;;;;1.02;0.40;;;;;;;;;;4750143;30;20039;-77
2022/12/08 09:23:52;;;;;;;0.65;0.40;;;;;;;;;;4760685;30;20036;-77
2022/12/08 09:26:21;;;;;;;0.60;0.47;;;;;;;;;;4768321;30;20424;-77
2022/12/08 09:28:48;;;;;;;0.70;0.50;;;;;;;;;;4770517;30;20059;-76
2022/12/08 09:31:15;;;;;;;1.65;0.80;;;;;;;;;;4750578;30;20023;-77
2022/12/08 09:33:41;;;;;;;0.88;0.60;;;;;;;;;;4765972;30;20440;-77
2022/12/08 09:36:08;;;;;;;1.42;0.90;;;;;;;;;;4751278;30;20036;-77
2022/12/08 09:38:33;;;;;;;1.55;0.90;;;;;;;;;;4752422;30;20486;-76
2022/12/08 09:41:02;;;;;;;1.10;0.80;;;;;;;;;;4759105;30;20031;-77
2022/12/08 09:43:42;;;;;;;4.43;1.50;;;;;;;;;;4766851;30;20090;-76
2022/12/08 09:46:10;;;;;;;2.50;1.38;;;;;;;;;;4751165;30;20062;-76
2022/12/08 09:48:40;;;;;;;2.58;1.40;;;;;;;;;;4764022;30;20023;-77
2022/12/08 09:51:08;;;;;;;2.92;1.45;;;;;;;;;;4763211;30;20043;-77
2022/12/08 09:53:41;;;;;;;2.75;1.63;;;;;;;;;;4770258;30;20161;-77
2022/12/08 09:56:21;;;;;;;3.92;1.42;;;;;;;;;;4767199;30;20039;-77
2022/12/08 09:59:10;;;;;;;3.38;1.70;;;;;;;;;;4763710;30;20100;-77
2022/12/08 10:01:40;;;;;;;2.88;1.67;;;;;;;;;;4767927;30;20038;-76
2022/12/08 10:04:25;;;;;;;3.17;1.88;;;;;;;;;;4767562;30;20032;-76
2022/12/08 10:06:56;;;;;;;3.25;1.90;;;;;;;;;;4766897;30;20035;-77
2022/12/08 10:09:43;;;;;;;3.60;2.10;;;;;;;;;;4754080;30;20036;-76
2022/12/08 10:12:18;;;;;;;2.95;1.88;;;;;;;;;;4767372;30;20035;-77
2022/12/08 10:15:06;;;;;;;4.07;1.83;;;;;;;;;;4758519;30;20032;-77
2022/12/08 10:17:44;;;;;;;4.07;1.88;;;;;;;;;;4757645;30;20063;-77
2022/12/08 10:20:14;;;;;;;3.15;1.75;;;;;;;;;;4765401;30;20028;-77
2022/12/08 10:22:40;;;;;;;3.40;1.75;;;;;;;;;;4752744;30;20501;-77
2022/12/08 10:25:21;;;;;;;4.32;2.00;;;;;;;;;;4764920;30;20363;-78
2022/12/08 10:27:53;;;;;;;2.40;1.67;;;;;;;;;;4754277;30;20020;-77
2022/12/08 10:30:20;;;;;;;3.30;1.90;;;;;;;;;;4765472;30;20512;-77
2022/12/08 10:32:52;;;;;;;3.25;1.83;;;;;;;;;;4765328;30;20567;-77
2022/12/08 10:35:20;;;;;;;4.45;1.90;;;;;;;;;;4764695;30;20069;-76
2022/12/08 10:38:00;;;;;;;6.15;2.00;;;;;;;;;;4752275;30;20036;-77
2022/12/08 10:40:29;;;;;;;3.13;1.77;;;;;;;;;;4768730;30;20058;-76
2022/12/08 10:42:58;;;;;;;4.07;1.77;;;;;;;;;;4769422;30;20058;-76
2022/12/08 10:45:25;;;;;;;3.40;1.77;;;;;;;;;;4768490;30;20038;-76
2022/12/08 10:48:05;;;;;;;5.28;2.05;;;;;;;;;;4768257;30;20044;-77
2022/12/08 10:50:35;;;;;;;3.15;1.60;;;;;;;;;;4770883;30;20024;-77
2022/12/08 10:53:20;;;;;;;4.63;2.00;;;;;;;;;;4771569;30;20043;-76
2022/12/08 10:55:49;;;;;;;3.13;1.90;;;;;;;;;;4764317;30;20058;-76
2022/12/08 10:58:27;;;;;;;2.78;1.83;;;;;;;;;;4744149;30;20046;-76
2022/12/08 11:00:56;;;;;;;3.50;1.92;;;;;;;;;;4763132;30;20069;-77
2022/12/08 11:03:28;;;;;;;4.35;2.28;;;;;;;;;;4757340;30;20285;-77
2022/12/08 11:05:58;;;;;;;3.97;2.30;;;;;;;;;;4762856;30;20390;-77
2022/12/08 11:08:25;;;;;;;4.15;1.90;;;;;;;;;;4758565;30;20063;-76
2022/12/08 11:10:50;;;;;;;2.67;1.50;;;;;;;;;;4762580;30;20093;-76
2022/12/08 11:13:22;;;;;;;3.97;1.63;;;;;;;;;;4761838;30;20039;-76
2022/12/08 11:15:49;;;;;;;2.67;1.33;;;;;;;;;;4759663;30;20505;-76
2022/12/08 11:18:38;;;;;;;2.30;1.40;;;;;;;;;;4763430;30;20412;-76
2022/12/08 11:21:16;;;;;;;2.20;1.30;;;;;;;;;;4760299;30;20035;-76
2022/12/08 11:23:47;;;;;;;2.38;1.17;;;;;;;;;;4768952;30;20044;-76
2022/12/08 11:26:32;;;;;;;2.65;1.42;;;;;;;;;;4753150;30;20224;-76
2022/12/08 11:28:57;;;;;;;1.58;1.00;;;;;;;;;;4761452;30;20059;-76
2022/12/08 11:31:55;;;;;;;2.42;1.00;;;;;;;;;;4755730;30;20124;-76
2022/12/08 11:34:36;;;;;;;2.20;1.10;;;;;;;;;;4745486;30;20075;-76
2022/12/08 11:37:04;;;;;;;3.00;0.93;;;;;;;;;;4757091;30;20035;-76
2022/12/08 11:39:33;;;;;;;1.42;1.00;;;;;;;;;;4766999;30;20055;-76
2022/12/08 11:42:02;;;;;;;1.50;0.80;;;;;;;;;;4763646;30;20473;-76
2022/12/08 11:44:37;;;;;;;2.08;1.23;;;;;;;;;;4760991;30;20489;-76
2022/12/08 11:47:12;;;;;;;1.95;1.20;;;;;;;;;;4755420;30;20058;-76
2022/12/08 11:49:40;;;;;;;1.70;1.10;;;;;;;;;;4767724;30;20020;-76
2022/12/08 11:52:29;;;;;;;1.60;0.80;;;;;;;;;;4765539;30;20073;-77
2022/12/08 11:55:01;;;;;;;1.80;0.80;;;;;;;;;;4767286;30;20034;-76
2022/12/08 11:57:28;;;;;;;1.63;1.00;;;;;;;;;;4768786;30;20081;-76
2022/12/08 11:59:56;;;;;;;3.15;0.90;;;;;;;;;;4758634;30;20044;-76
2022/12/08 12:02:30;;;;;;;2.10;0.80;;;;;;;;;;4758275;30;20450;-76
2022/12/08 12:05:08;;;;;;;1.70;1.02;;;;;;;;;;4766495;30;20074;-77
2022/12/08 12:07:54;;;;;;;2.20;1.30;;;;;;;;;;4764688;30;20032;-76
2022/12/08 12:10:41;;;;;;;1.98;1.00;;;;;;;;;;4768177;30;20509;-76
2022/12/08 12:13:31;;;;;;;2.35;1.10;;;;;;;;;;4768378;30;20474;-76
2022/12/08 12:16:15;;;;;;;2.25;1.05;;;;;;;;;;4771022;30;20059;-76
2022/12/08 12:18:49;;;;;;;1.17;0.80;;;;;;;;;;4763731;30;20046;-76
2022/12/08 12:21:24;;;;;;;4.03;0.90;;;;;;;;;;4746809;30;20574;-76
2022/12/08 12:23:57;;;;;;;2.42;0.98;;;;;;;;;;4764884;30;20556;-77
2022/12/08 12:26:35;;;;;;;1.95;1.10;;;;;;;;;;4772958;30;20417;-76
2022/12/08 12:29:05;;;;;;;2.25;1.25;;;;;;;;;;4765303;30;20043;-76
2022/12/08 12:31:35;;;;;;;2.08;0.85;;;;;;;;;;4763030;30;20032;-76
2022/12/08 12:34:14;;;;;;;1.70;0.85;;;;;;;;;;4766239;30;20203;-76
2022/12/08 12:37:02;;;;;;;0.75;0.50;;;;;;;;;;4764830;30;20486;-75
2022/12/08 12:39:30;;;;;;;0.98;0.63;;;;;;;;;;4765629;30;20043;-76
2022/12/08 12:42:04;;;;;;;1.00;0.40;;;;;;;;;;4768226;30;20137;-76
2022/12/08 12:44:32;;;;;;;1.58;0.50;;;;;;;;;;4767640;30;20028;-76
2022/12/08 12:46:59;;;;;;;0.85;0.50;;;;;;;;;;4768255;30;20114;-76
2022/12/08 12:49:39;;;;;;;0.47;0.40;;;;;;;;;;4767549;30;20493;-76
2022/12/08 12:52:14;;;;;;;1.70;0.60;;;;;;;;;;4762124;30;20036;-76
2022/12/08 12:55:08;;;;;;;0.93;0.50;;;;;;;;;;4751732;30;20040;-76
2022/12/08 12:57:36;;;;;;;1.00;0.43;;;;;;;;;;4751022;30;20048;-76
2022/12/08 13:00:02;;;;;;;0.73;0.50;;;;;;;;;;4760059;30;20494;-77
2022/12/08 13:02:38;;;;;;;1.02;0.52;;;;;;;;;;4757697;30;20077;-76
2022/12/08 13:05:15;;;;;;;2.88;0.90;;;;;;;;;;4765495;30;20055;-77
2022/12/08 13:07:45;;;;;;;1.00;0.57;;;;;;;;;;4766989;30;20489;-76
2022/12/08 13:10:24;;;;;;;1.23;0.73;;;;;;;;;;4753687;30;20040;-77
2022/12/08 13:13:11;;;;;;;1.33;0.82;;;;;;;;;;4766037;30;20110;-76
2022/12/08 13:15:38;;;;;;;1.02;0.60;;;;;;;;;;4749284;30;20060;-76
2022/12/08 13:18:05;;;;;;;0.98;0.65;;;;;;;;;;4768753;30;20039;-76
2022/12/08 13:20:40;;;;;;;1.13;0.80;;;;;;;;;;4766640;30;20032;-76
2022/12/08 13:23:53;;;;;;;1.15;0.70;;;;;;;;;;4743897;30;20043;-76
2022/12/08 13:26:26;;;;;;;0.77;0.55;;;;;;;;;;4734108;30;20048;-76
2022/12/08 13:29:00;;;;;;;1.13;0.70;;;;;;;;;;4749316;30;20516;-76
2022/12/08 13:31:55;;;;;;;1.08;0.70;;;;;;;;;;4753248;30;20036;-76
2022/12/08 13:34:40;;;;;;;2.50;1.13;;;;;;;;;;4769008;30;20032;-76
2022/12/08 13:37:13;;;;;;;1.40;1.00;;;;;;;;;;4750674;30;20089;-76
2022/12/08 13:39:38;;;;;;;1.58;1.10;;;;;;;;;;4755865;30;20031;-76
2022/12/08 13:42:21;;;;;;;1.65;1.10;;;;;;;;;;4768781;30;20089;-76
2022/12/08 13:44:51;;;;;;;2.22;1.10;;;;;;;;;;4767562;30;20042;-76
2022/12/08 13:47:24;;;;;;;2.53;1.23;;;;;;;;;;4750059;30;20039;-77
2022/12/08 13:49:54;;;;;;;;;;;;;;;;;;4765585;30;20558;-77
2022/12/08 13:52:42;;;;;;;1.42;1.00;;;;;;;;;;4752437;30;19987;-76
2022/12/08 13:55:21;;;;;;;2.15;1.23;;;;;;;;;;4763600;30;20524;-76
2022/12/08 13:57:49;;;;;;;2.80;1.75;;;;;;;;;;4761840;30;20082;-76
2022/12/08 14:00:17;;;;;;;3.42;2.17;;;;;;;;;;4767016;30;20509;-76
2022/12/08 14:02:48;;;;;;;3.78;1.77;;;;;;;;;;4750840;30;20044;-76
2022/12/08 14:05:16;;;;;;;3.70;2.00;;;;;;;;;;4772854;30;20397;-76
2022/12/08 14:07:42;;;;;;;3.80;2.38;;;;;;;;;;4751896;30;20023;-76
2022/12/08 14:10:29;;;;;;;3.28;1.90;;;;;;;;;;4766478;30;20032;-76
2022/12/08 14:12:58;;;;;;;3.83;2.05;;;;;;;;;;4768662;30;20080;-76
2022/12/08 14:15:24;;;;;;;4.03;1.77;;;;;;;;;;4753797;30;20066;-77
2022/12/08 14:17:52;;;;;;;2.85;1.65;;;;;;;;;;4770821;30;20036;-77
2022/12/08 14:20:29;;;;;;;3.22;1.70;;;;;;;;;;4765961;30;20040;-76
2022/12/08 14:22:55;;;;;;;2.47;1.50;;;;;;;;;;4755338;30;20608;-77
2022/12/08 14:25:22;;;;;;;3.03;1.77;;;;;;;;;;4769077;30;20043;-76
2022/12/08 14:27:48;;;;;;;2.90;1.67;;;;;;;;;;4764362;30;20318;-76
2022/12/08 14:30:26;;;;;;;2.33;1.50;;;;;;;;;;4773898;30;20040;-76
2022/12/08 14:32:59;;;;;;;4.00;1.85;;;;;;;;;;4772273;30;20490;-77
2022/12/08 14:35:32;;;;;;;3.70;1.85;;;;;;;;;;4756778;30;20647;-76
2022/12/08 14:38:03;;;;;;;2.30;1.60;;;;;;;;;;4771892;30;20044;-76
2022/12/08 14:40:35;;;;;;;4.32;1.70;;;;;;;;;;4762240;30;20120;-76
2022/12/08 14:43:13;;;;;;;2.30;1.63;;;;;;;;;;4768889;30;20524;-76
2022/12/08 14:45:39;;;;;;;3.15;1.48;;;;;;;;;;4766743;30;20032;-76
2022/12/08 14:48:43;;;;;;;3.30;1.83;;;;;;;;;;4770831;30;20042;-76
2022/12/08 14:51:30;;;;;;;2.70;1.70;;;;;;;;;;4665582;30;20034;-77
2022/12/08 14:54:08;;;;;;;2.60;1.70;;;;;;;;;;4754877;30;20096;-77
2022/12/08 14:56:50;;;;;;;3.30;1.90;;;;;;;;;;4767809;30;20110;-76
2022/12/08 14:59:27;;;;;;;2.63;1.80;;;;;;;;;;4776230;30;20528;-76
2022/12/08 15:02:24;;;;;;;3.42;2.17;;;;;;;;;;4769125;30;20043;-76
2022/12/08 15:04:59;;;;;;;2.80;1.90;;;;;;;;;;4749590;30;20060;-76